createdAt,value
2023-02-22T05:07:49.152Z,101268.69
2023-02-22T05:10:16.009Z,101259.09
2023-02-22T05:12:42.458Z,101258.31
2023-02-22T05:15:09.683Z,101259.22
2023-02-22T05:17:36.121Z,101254.00
2023-02-22T05:20:03.771Z,101254.06
2023-02-22T05:22:30.208Z,101253.22
2023-02-22T05:24:56.499Z,101261.13
2023-02-22T05:27:23.200Z,101263.75
2023-02-22T05:29:49.500Z,101258.50
2023-02-22T05:32:15.908Z,101260.22
2023-02-22T05:34:42.265Z,101261.06
2023-02-22T05:37:08.593Z,101255.81
2023-02-22T05:39:34.891Z,101256.66
2023-02-22T05:42:01.229Z,101259.34
2023-02-22T05:44:27.627Z,101255.81
2023-02-22T05:46:53.943Z,101261.03
2023-02-22T05:49:20.270Z,101261.88
2023-02-22T05:51:46.566Z,101263.69
2023-02-22T05:54:12.937Z,101269.84
2023-02-22T05:56:39.197Z,101273.34
2023-02-22T05:59:05.536Z,101274.25
2023-02-22T06:01:32.112Z,101273.34
2023-02-22T06:03:58.438Z,101276.03
2023-02-22T06:06:24.752Z,101269.88
2023-02-22T06:08:51.053Z,101276.88
2023-02-22T06:11:17.722Z,101274.22
2023-02-22T06:13:49.435Z,101270.69
2023-02-22T06:16:15.763Z,101279.50
2023-02-22T06:18:42.060Z,101278.59
2023-02-22T06:21:09.710Z,101288.25
2023-02-22T06:23:36.033Z,101287.47
2023-02-22T06:26:02.324Z,101286.59
2023-02-22T06:28:28.616Z,101290.13
2023-02-22T06:30:54.891Z,101288.41
2023-02-22T06:33:21.236Z,101286.69
2023-02-22T06:35:47.564Z,101282.28
2023-02-22T06:38:21.034Z,101293.69
2023-02-22T06:40:47.414Z,101298.09
2023-02-22T06:43:13.723Z,101303.38
2023-02-22T06:45:39.982Z,101303.38
2023-02-22T06:48:06.309Z,101297.28
2023-02-22T06:50:35.528Z,101298.13
2023-02-22T06:53:02.169Z,101299.03
2023-02-22T06:55:31.809Z,101300.78
2023-02-22T06:57:58.805Z,101306.03
2023-02-22T07:00:26.698Z,101313.97
2023-02-22T07:02:54.601Z,101311.31
2023-02-22T07:05:23.060Z,101313.91
2023-02-22T07:07:50.985Z,101309.47
2023-02-22T07:10:21.074Z,101313.91
2023-02-22T07:12:47.671Z,101313.00
2023-02-22T07:15:14.140Z,101313.06
2023-02-22T07:17:40.538Z,101307.78
2023-02-22T07:20:08.237Z,101320.94
2023-02-22T07:22:34.512Z,101321.84
2023-02-22T07:25:00.843Z,101316.56
2023-02-22T07:27:27.134Z,101313.06
2023-02-22T07:29:53.408Z,101307.78
2023-02-22T07:32:19.770Z,101312.22
2023-02-22T07:34:46.134Z,101313.16
2023-02-22T07:37:12.385Z,101315.78
2023-02-22T07:39:38.661Z,101315.81
2023-02-22T07:42:05.014Z,101318.47
2023-02-22T07:44:31.308Z,101320.22
2023-02-22T07:46:57.580Z,101316.69
2023-02-22T07:49:23.899Z,101326.38
2023-02-22T07:51:50.218Z,101319.38
2023-02-22T07:54:16.518Z,101317.63
2023-02-22T07:56:47.748Z,101314.13
2023-02-22T07:59:15.184Z,101307.97
2023-02-22T08:01:42.103Z,101315.03
2023-02-22T08:04:08.515Z,101316.75
2023-02-22T08:06:34.792Z,101322.03
2023-02-22T08:09:01.064Z,101323.78
2023-02-22T08:11:27.355Z,101318.53
2023-02-22T08:13:53.659Z,101316.78
2023-02-22T08:16:19.943Z,101313.22
2023-02-22T08:18:46.249Z,101311.47
2023-02-22T08:21:12.499Z,101317.66
2023-02-22T08:23:38.763Z,101318.53
2023-02-22T08:26:10.564Z,101319.38
2023-02-22T08:28:36.832Z,101312.38
2023-02-22T08:31:03.191Z,101312.38
2023-02-22T08:33:29.501Z,101314.13
2023-02-22T08:35:55.790Z,101319.41
2023-02-22T08:38:28.303Z,101323.75
2023-02-22T08:40:54.722Z,101314.09
2023-02-22T08:43:21.979Z,101315.88
2023-02-22T08:45:48.930Z,101322.03
2023-02-22T08:48:16.552Z,101331.69
2023-02-22T08:50:42.772Z,101324.66
2023-02-22T08:53:10.562Z,101317.63
2023-02-22T08:55:38.903Z,101329.03
2023-02-22T08:58:06.543Z,101320.28
2023-02-22T09:00:33.761Z,101317.63
2023-02-22T09:03:01.565Z,101315.91
2023-02-22T09:05:30.917Z,101318.50
2023-02-22T09:07:57.820Z,101322.03
2023-02-22T09:10:26.900Z,101322.00
2023-02-22T09:12:54.486Z,101329.06
2023-02-22T09:15:21.465Z,101324.66
2023-02-22T09:17:48.160Z,101321.97
2023-02-22T09:20:17.384Z,101331.69
2023-02-22T09:22:45.592Z,101317.63
2023-02-22T09:25:17.062Z,101326.38
2023-02-22T09:27:46.626Z,101323.75
2023-02-22T09:30:19.256Z,101322.81
2023-02-22T09:32:45.802Z,101327.22
2023-02-22T09:35:12.177Z,101321.06
2023-02-22T09:37:38.490Z,101328.09
2023-02-22T09:40:05.296Z,101326.31
2023-02-22T09:42:39.486Z,101325.44
2023-02-22T09:45:19.667Z,101320.13
2023-02-22T09:47:52.506Z,101312.16
2023-02-22T09:50:28.974Z,101313.91
2023-02-22T09:53:19.865Z,101312.16
2023-02-22T09:55:50.575Z,101307.75
2023-02-22T09:58:34.048Z,101315.69
2023-02-22T10:01:25.896Z,101307.72
2023-02-22T10:03:52.119Z,101301.50
2023-02-22T10:06:22.346Z,101307.63
2023-02-22T10:08:50.109Z,101296.16
2023-02-22T10:11:46.484Z,101301.38
2023-02-22T10:14:34.581Z,101298.69
2023-02-22T10:17:19.400Z,101288.16
2023-02-22T10:20:16.732Z,101294.22
2023-02-22T10:23:03.648Z,101294.25
2023-02-22T10:25:35.071Z,101289.75
2023-02-22T10:28:04.609Z,101287.91
2023-02-22T10:30:35.303Z,101287.03
2023-02-22T10:33:12.314Z,101287.06
2023-02-22T10:35:39.612Z,101282.59
2023-02-22T10:38:22.977Z,101284.47
2023-02-22T10:40:55.868Z,101285.38
2023-02-22T10:43:22.574Z,101279.06
2023-02-22T10:45:53.083Z,101285.31
2023-02-22T10:48:21.257Z,101280.88
2023-02-22T10:50:47.906Z,101274.69
2023-02-22T10:53:15.232Z,101272.81
2023-02-22T10:56:06.557Z,101278.84
2023-02-22T10:58:53.647Z,101272.63
2023-02-22T11:01:32.330Z,101271.53
2023-02-22T11:04:02.055Z,101267.25
2023-02-22T11:06:29.018Z,101271.59
2023-02-22T11:09:10.725Z,101274.25
2023-02-22T11:11:39.521Z,101269.09
2023-02-22T11:14:06.733Z,101266.44
2023-02-22T11:16:36.819Z,101272.63
2023-02-22T11:19:10.683Z,101265.47
2023-02-22T11:21:37.331Z,101261.00
2023-02-22T11:24:07.256Z,101259.94
2023-02-22T11:26:39.689Z,101264.31
2023-02-22T11:29:22.114Z,101264.28
2023-02-22T11:31:49.381Z,101260.00
2023-02-22T11:34:27.660Z,101258.13
2023-02-22T11:36:53.944Z,101256.16
2023-02-22T11:39:32.647Z,101241.97
2023-02-22T11:42:20.364Z,101248.19
2023-02-22T11:44:46.616Z,101241.13
2023-02-22T11:47:12.864Z,101237.38
2023-02-22T11:49:42.984Z,101230.28
2023-02-22T11:52:33.044Z,101236.44
2023-02-22T11:55:26.775Z,101224.91
2023-02-22T11:58:26.632Z,101223.25
2023-02-22T12:00:57.107Z,101219.47
2023-02-22T12:03:41.920Z,101219.63
2023-02-22T12:06:28.182Z,101222.38
2023-02-22T12:09:14.832Z,101218.00
2023-02-22T12:12:03.958Z,101218.00
2023-02-22T12:15:10.730Z,101219.53
2023-02-22T12:18:00.364Z,101209.84
2023-02-22T12:20:44.972Z,101214.34
2023-02-22T12:23:28.784Z,101214.34
2023-02-22T12:26:35.989Z,101210.13
2023-02-22T12:29:35.817Z,101209.25
2023-02-22T12:32:14.065Z,101204.06
2023-02-22T12:34:48.197Z,101203.28
2023-02-22T12:37:21.331Z,101207.72
2023-02-22T12:40:24.825Z,101205.91
2023-02-22T12:43:08.376Z,101201.34
2023-02-22T12:45:58.026Z,101208.44
2023-02-22T12:48:48.526Z,101208.31
2023-02-22T12:51:29.969Z,101211.03
2023-02-22T12:54:10.392Z,101211.03
2023-02-22T12:57:03.137Z,101214.53
2023-02-22T12:59:36.201Z,101210.31
2023-02-22T13:02:14.480Z,101213.78
2023-02-22T13:04:41.012Z,101207.63
2023-02-22T13:07:36.446Z,101211.06
2023-02-22T13:10:35.149Z,101205.63
2023-02-22T13:13:18.101Z,101215.31
2023-02-22T13:16:03.137Z,101203.00
2023-02-22T13:18:40.506Z,101198.47
2023-02-22T13:21:14.882Z,101194.38
2023-02-22T13:23:47.275Z,101196.06
2023-02-22T13:26:28.470Z,101195.00
2023-02-22T13:29:12.840Z,101193.38
2023-02-22T13:32:08.267Z,101192.31
2023-02-22T13:34:59.305Z,101183.38
2023-02-22T13:37:53.970Z,101178.03
2023-02-22T13:40:55.648Z,101188.84
2023-02-22T13:43:55.856Z,101189.69
2023-02-22T13:46:36.922Z,101187.97
2023-02-22T13:49:03.129Z,101185.41
2023-02-22T13:51:44.039Z,101185.38
2023-02-22T13:54:13.336Z,101184.56
2023-02-22T13:56:44.390Z,101181.84
2023-02-22T13:59:36.362Z,101185.25
2023-02-22T14:02:05.201Z,101173.75
2023-02-22T14:04:31.396Z,101179.13
2023-02-22T14:07:22.356Z,101180.91
2023-02-22T14:09:54.127Z,101171.38
2023-02-22T14:12:29.554Z,101171.97
2023-02-22T14:15:32.975Z,101168.44
2023-02-22T14:18:01.459Z,101171.03
2023-02-22T14:20:34.946Z,101162.16
2023-02-22T14:23:23.512Z,101160.53
2023-02-22T14:25:50.952Z,101164.94
2023-02-22T14:29:12.781Z,101165.03
2023-02-22T14:31:41.900Z,101155.31
2023-02-22T14:34:11.219Z,101168.59
2023-02-22T14:36:40.620Z,101166.09
2023-02-22T14:39:18.836Z,101156.56
2023-02-22T14:41:58.369Z,101153.88
2023-02-22T14:44:27.448Z,101150.41
2023-02-22T14:46:57.986Z,101154.75
2023-02-22T14:49:30.310Z,101146.91
2023-02-22T14:52:07.538Z,101154.78
2023-02-22T14:54:56.477Z,101147.75
2023-02-22T14:57:29.836Z,101142.50
2023-02-22T15:00:07.150Z,101139.88
2023-02-22T15:02:40.515Z,101146.09
2023-02-22T15:05:07.003Z,101149.66
2023-02-22T15:07:33.266Z,101147.81
2023-02-22T15:10:18.248Z,101145.22
2023-02-22T15:13:02.214Z,101139.97
2023-02-22T15:15:30.825Z,101132.97
2023-02-22T15:17:57.691Z,101139.97
2023-02-22T15:20:25.492Z,101139.97
2023-02-22T15:22:57.908Z,101138.16
2023-02-22T15:25:27.535Z,101129.47
2023-02-22T15:27:59.729Z,101140.91
2023-02-22T15:30:29.537Z,101127.66
2023-02-22T15:33:04.075Z,101134.00
2023-02-22T15:35:31.932Z,101132.19
2023-02-22T15:38:04.572Z,101134.88
2023-02-22T15:40:30.880Z,101134.91
2023-02-22T15:42:57.359Z,101133.19
2023-02-22T15:45:25.447Z,101134.06
2023-02-22T15:47:53.156Z,101135.00
2023-02-22T15:50:31.246Z,101137.66
2023-02-22T15:53:23.569Z,101130.56
2023-02-22T15:55:57.298Z,101134.22
2023-02-22T15:58:26.428Z,101128.06
2023-02-22T16:01:07.663Z,101128.19
2023-02-22T16:03:41.581Z,101130.84
2023-02-22T16:06:10.759Z,101121.16
2023-02-22T16:08:59.064Z,101123.91
2023-02-22T16:11:38.334Z,101123.06
2023-02-22T16:14:22.765Z,101121.38
2023-02-22T16:16:49.081Z,101123.16
2023-02-22T16:19:32.032Z,101118.69
2023-02-22T16:22:01.329Z,101125.00
2023-02-22T16:24:31.280Z,101122.34
2023-02-22T16:27:12.759Z,101116.16
2023-02-22T16:29:39.126Z,101117.06
2023-02-22T16:32:05.499Z,101116.22
2023-02-22T16:34:31.841Z,101111.81
2023-02-22T16:36:58.353Z,101120.59
2023-02-22T16:39:27.596Z,101116.22
2023-02-22T16:41:56.753Z,101116.25
2023-02-22T16:44:23.779Z,101116.31
2023-02-22T16:46:50.424Z,101118.06
2023-02-22T16:49:16.764Z,101126.00
2023-02-22T16:51:52.504Z,101119.88
2023-02-22T16:54:27.492Z,101117.22
2023-02-22T16:56:56.754Z,101117.28
2023-02-22T16:59:23.081Z,101118.13
2023-02-22T17:01:49.521Z,101113.75
2023-02-22T17:04:21.771Z,101112.97
2023-02-22T17:06:48.479Z,101117.31
2023-02-22T17:09:15.336Z,101116.44
2023-02-22T17:11:43.141Z,101113.88
2023-02-22T17:14:13.078Z,101112.13
2023-02-22T17:16:39.374Z,101114.81
2023-02-22T17:19:15.144Z,101114.88
2023-02-22T17:21:41.449Z,101120.06
2023-02-22T17:24:12.097Z,101117.47
2023-02-22T17:26:38.483Z,101114.88
2023-02-22T17:29:04.989Z,101116.66
2023-02-22T17:31:31.730Z,101114.94
2023-02-22T17:34:01.684Z,101117.59
2023-02-22T17:36:32.171Z,101120.25
2023-02-22T17:38:59.625Z,101118.59
2023-02-22T17:41:26.030Z,101113.28
2023-02-22T17:43:52.353Z,101119.47
2023-02-22T17:46:18.980Z,101115.13
2023-02-22T17:48:45.976Z,101122.16
2023-02-22T17:51:12.480Z,101115.16
2023-02-22T17:53:38.948Z,101114.28
2023-02-22T17:56:10.591Z,101112.59
2023-02-22T17:58:36.959Z,101110.84
2023-02-22T18:01:03.967Z,101116.97
2023-02-22T18:03:30.891Z,101114.38
2023-02-22T18:05:59.831Z,101124.16
2023-02-22T18:08:28.889Z,101117.97
2023-02-22T18:10:55.575Z,101115.31
2023-02-22T18:13:23.735Z,101113.66
2023-02-22T18:15:50.388Z,101117.19
2023-02-22T18:18:17.307Z,101113.69
2023-02-22T18:20:45.297Z,101112.81
2023-02-22T18:23:17.549Z,101113.69
2023-02-22T18:26:03.735Z,101113.78
2023-02-22T18:28:35.267Z,101111.16
2023-02-22T18:31:07.099Z,101111.19
2023-02-22T18:33:33.390Z,101115.63
2023-02-22T18:35:59.710Z,101112.97
2023-02-22T18:38:25.994Z,101110.38
2023-02-22T18:41:00.550Z,101113.03
2023-02-22T18:43:27.585Z,101119.16
2023-02-22T18:45:54.730Z,101108.63
2023-02-22T18:48:21.066Z,101108.63
2023-02-22T18:50:47.448Z,101104.25
2023-02-22T18:53:13.792Z,101103.38
2023-02-22T18:55:40.301Z,101107.75
2023-02-22T18:58:06.571Z,101104.25
2023-02-22T19:00:34.674Z,101112.16
2023-02-22T19:03:01.055Z,101106.00
2023-02-22T19:05:27.330Z,101102.50
2023-02-22T19:07:53.605Z,101100.78
2023-02-22T19:10:19.935Z,101106.00
2023-02-22T19:12:46.223Z,101101.63
2023-02-22T19:15:12.511Z,101102.53
2023-02-22T19:17:40.163Z,101099.88
2023-02-22T19:20:07.653Z,101102.53
2023-02-22T19:22:33.954Z,101101.66
2023-02-22T19:25:00.371Z,101101.66
2023-02-22T19:27:28.256Z,101101.66
2023-02-22T19:29:54.535Z,101099.03
2023-02-22T19:32:20.951Z,101103.44
2023-02-22T19:34:47.372Z,101101.69
2023-02-22T19:37:13.760Z,101101.69
2023-02-22T19:39:40.166Z,101100.81
2023-02-22T19:42:06.441Z,101102.59
2023-02-22T19:44:32.723Z,101103.44
2023-02-22T19:46:59.086Z,101105.22
2023-02-22T19:51:52.597Z,101107.84
2023-02-22T19:54:19.093Z,101112.22
2023-02-22T19:56:45.499Z,101113.97
2023-02-22T19:59:11.782Z,101105.22
2023-02-22T20:01:38.106Z,101113.09
2023-02-22T20:04:08.229Z,101106.13
